Anderson, Alabama
Current Conditions -  °F | °C
As of 4:53 PM on Saturday 25 Oct 2014 (Local Time) from KMSL Reporting Station
Broken Clouds Broken Clouds  
Wind Chill: 78°   Ceiling: 4200
Heat Index: 79°   Visibility: 10mi
Dew Point: 60°   Wind: 8mph
Humidity: 54%   Direction: 270°W
Pressure: 30.03"   Gusts: NA
Location:  34.93°N, 87.27°W
Report Text: KMSL 252153Z AUTO 27007KT 10SM BKN042 26/16 A3003 RMK AO2 SLP166 T02560156
Loading
Personal Weather Stations






























Interactive Weather Map
Tropical Storm Tracking
New forecast layout! Learn more

10-Day Weather Forecast

Advertisements
Track Severe Weather on mobile